sensor_id;sensor_type;location;lat;lon;timestamp;temperature;humidity
18175;DHT22;9212;50.894;16.714;2023-06-26T00:06:41;14.10;99.90
18175;DHT22;9212;50.894;16.714;2023-06-26T00:09:08;14.20;99.90
18175;DHT22;9212;50.894;16.714;2023-06-26T00:18:57;14.30;99.90
18175;DHT22;9212;50.894;16.714;2023-06-26T00:23:55;14.10;99.90
18175;DHT22;9212;50.894;16.714;2023-06-26T00:28:49;13.60;99.90
18175;DHT22;9212;50.894;16.714;2023-06-26T00:31:17;14.50;99.90
18175;DHT22;9212;50.894;16.714;2023-06-26T00:38:39;14.20;99.90
18175;DHT22;9212;50.894;16.714;2023-06-26T00:41:07;14.70;99.90
18175;DHT22;9212;50.894;16.714;2023-06-26T00:43:38;14.00;99.90
18175;DHT22;9212;50.894;16.714;2023-06-26T00:46:09;14.00;99.90
18175;DHT22;9212;50.894;16.714;2023-06-26T00:48:37;13.90;99.90
18175;DHT22;9212;50.894;16.714;2023-06-26T00:51:04;14.10;99.90
18175;DHT22;9212;50.894;16.714;2023-06-26T00:58:27;14.60;99.90
18175;DHT22;9212;50.894;16.714;2023-06-26T01:03:22;13.90;99.90
18175;DHT22;9212;50.894;16.714;2023-06-26T01:05:52;14.00;99.90
18175;DHT22;9212;50.894;16.714;2023-06-26T01:10:47;13.70;99.90
18175;DHT22;9212;50.894;16.714;2023-06-26T01:13:15;13.90;99.90
18175;DHT22;9212;50.894;16.714;2023-06-26T01:15:44;13.80;99.90
18175;DHT22;9212;50.894;16.714;2023-06-26T01:20:41;13.90;99.90
18175;DHT22;9212;50.894;16.714;2023-06-26T01:23:15;14.10;99.90
18175;DHT22;9212;50.894;16.714;2023-06-26T01:25:53;13.80;99.90
18175;DHT22;9212;50.894;16.714;2023-06-26T01:28:25;14.30;99.90
18175;DHT22;9212;50.894;16.714;2023-06-26T01:30:54;13.80;99.90
18175;DHT22;9212;50.894;16.714;2023-06-26T01:33:21;13.90;99.90
18175;DHT22;9212;50.894;16.714;2023-06-26T01:38:17;13.90;99.90
18175;DHT22;9212;50.894;16.714;2023-06-26T01:43:18;13.30;99.90
18175;DHT22;9212;50.894;16.714;2023-06-26T01:45:51;13.80;99.90
18175;DHT22;9212;50.894;16.714;2023-06-26T01:48:24;13.70;99.90
18175;DHT22;9212;50.894;16.714;2023-06-26T01:50:53;13.70;99.90
18175;DHT22;9212;50.894;16.714;2023-06-26T01:53:24;13.70;99.90
18175;DHT22;9212;50.894;16.714;2023-06-26T01:55:54;13.70;99.90
18175;DHT22;9212;50.894;16.714;2023-06-26T01:58:24;13.80;99.90
18175;DHT22;9212;50.894;16.714;2023-06-26T02:00:53;13.70;99.90
18175;DHT22;9212;50.894;16.714;2023-06-26T02:05:50;14.40;99.90
18175;DHT22;9212;50.894;16.714;2023-06-26T02:13:11;13.20;99.90
18175;DHT22;9212;50.894;16.714;2023-06-26T02:15:39;13.80;99.90
18175;DHT22;9212;50.894;16.714;2023-06-26T02:18:07;13.70;99.90
18175;DHT22;9212;50.894;16.714;2023-06-26T02:25:29;13.70;99.90
18175;DHT22;9212;50.894;16.714;2023-06-26T02:27:56;13.40;99.90
18175;DHT22;9212;50.894;16.714;2023-06-26T02:35:19;14.20;99.90
18175;DHT22;9212;50.894;16.714;2023-06-26T02:37:46;13.80;99.90
18175;DHT22;9212;50.894;16.714;2023-06-26T02:45:08;13.60;99.90
18175;DHT22;9212;50.894;16.714;2023-06-26T02:47:36;13.50;99.90
18175;DHT22;9212;50.894;16.714;2023-06-26T02:50:05;13.70;99.90
18175;DHT22;9212;50.894;16.714;2023-06-26T02:52:34;13.80;99.90
18175;DHT22;9212;50.894;16.714;2023-06-26T02:55:00;13.60;99.90
18175;DHT22;9212;50.894;16.714;2023-06-26T02:57:27;13.40;99.90
18175;DHT22;9212;50.894;16.714;2023-06-26T02:59:54;14.10;99.90
18175;DHT22;9212;50.894;16.714;2023-06-26T03:04:49;13.70;99.90
18175;DHT22;9212;50.894;16.714;2023-06-26T03:09:44;14.40;99.90
18175;DHT22;9212;50.894;16.714;2023-06-26T03:12:11;13.90;99.90
18175;DHT22;9212;50.894;16.714;2023-06-26T03:14:38;14.00;99.90
18175;DHT22;9212;50.894;16.714;2023-06-26T03:17:05;13.90;99.90
18175;DHT22;9212;50.894;16.714;2023-06-26T03:19:32;14.00;99.90
18175;DHT22;9212;50.894;16.714;2023-06-26T03:29:23;14.30;99.90
18175;DHT22;9212;50.894;16.714;2023-06-26T03:36:45;14.50;99.90
18175;DHT22;9212;50.894;16.714;2023-06-26T03:41:39;14.40;99.90
18175;DHT22;9212;50.894;16.714;2023-06-26T03:44:08;14.50;99.90
18175;DHT22;9212;50.894;16.714;2023-06-26T03:56:24;14.90;99.90
18175;DHT22;9212;50.894;16.714;2023-06-26T03:58:50;14.90;99.90
18175;DHT22;9212;50.894;16.714;2023-06-26T04:01:19;14.40;99.90
18175;DHT22;9212;50.894;16.714;2023-06-26T04:08:41;15.10;99.90
18175;DHT22;9212;50.894;16.714;2023-06-26T04:16:03;16.90;99.90
18175;DHT22;9212;50.894;16.714;2023-06-26T04:21:07;19.60;99.90
18175;DHT22;9212;50.894;16.714;2023-06-26T04:23:35;20.30;99.90
18175;DHT22;9212;50.894;16.714;2023-06-26T04:26:03;20.90;99.90
18175;DHT22;9212;50.894;16.714;2023-06-26T04:28:30;20.60;99.90
18175;DHT22;9212;50.894;16.714;2023-06-26T04:30:58;21.70;99.90
18175;DHT22;9212;50.894;16.714;2023-06-26T04:33:26;22.00;99.90
18175;DHT22;9212;50.894;16.714;2023-06-26T04:35:54;22.30;99.90
18175;DHT22;9212;50.894;16.714;2023-06-26T04:38:21;22.10;99.90
18175;DHT22;9212;50.894;16.714;2023-06-26T04:40:48;22.70;99.90
18175;DHT22;9212;50.894;16.714;2023-06-26T04:43:15;27.20;99.90
18175;DHT22;9212;50.894;16.714;2023-06-26T04:45:43;28.10;99.90
18175;DHT22;9212;50.894;16.714;2023-06-26T04:48:10;28.50;99.90
18175;DHT22;9212;50.894;16.714;2023-06-26T04:50:37;30.40;99.90
18175;DHT22;9212;50.894;16.714;2023-06-26T04:53:05;30.70;99.90
18175;DHT22;9212;50.894;16.714;2023-06-26T04:55:32;31.00;99.90
18175;DHT22;9212;50.894;16.714;2023-06-26T04:58:00;30.60;99.90
18175;DHT22;9212;50.894;16.714;2023-06-26T05:00:26;30.90;99.90
18175;DHT22;9212;50.894;16.714;2023-06-26T05:07:54;34.20;99.90
18175;DHT22;9212;50.894;16.714;2023-06-26T05:10:22;34.20;99.90
18175;DHT22;9212;50.894;16.714;2023-06-26T05:12:49;34.90;99.90
18175;DHT22;9212;50.894;16.714;2023-06-26T05:20:11;35.50;99.90
18175;DHT22;9212;50.894;16.714;2023-06-26T05:22:39;36.40;99.90
18175;DHT22;9212;50.894;16.714;2023-06-26T05:25:09;36.00;99.90
18175;DHT22;9212;50.894;16.714;2023-06-26T05:27:38;36.10;90.60
18175;DHT22;9212;50.894;16.714;2023-06-26T05:30:06;37.20;99.90
18175;DHT22;9212;50.894;16.714;2023-06-26T05:32:34;37.00;87.00
18175;DHT22;9212;50.894;16.714;2023-06-26T05:35:03;36.80;87.10
18175;DHT22;9212;50.894;16.714;2023-06-26T05:37:31;36.10;99.90
18175;DHT22;9212;50.894;16.714;2023-06-26T05:39:59;37.60;99.90
18175;DHT22;9212;50.894;16.714;2023-06-26T05:42:27;38.10;99.90
18175;DHT22;9212;50.894;16.714;2023-06-26T05:44:56;39.10;99.90
18175;DHT22;9212;50.894;16.714;2023-06-26T05:47:23;39.20;99.90
18175;DHT22;9212;50.894;16.714;2023-06-26T05:49:50;39.20;99.90
18175;DHT22;9212;50.894;16.714;2023-06-26T05:52:17;38.70;99.90
18175;DHT22;9212;50.894;16.714;2023-06-26T05:54:45;39.20;81.00
18175;DHT22;9212;50.894;16.714;2023-06-26T05:57:13;38.20;75.80
18175;DHT22;9212;50.894;16.714;2023-06-26T05:59:40;37.50;77.00
18175;DHT22;9212;50.894;16.714;2023-06-26T06:02:11;36.60;72.10
18175;DHT22;9212;50.894;16.714;2023-06-26T06:04:38;37.40;99.90
18175;DHT22;9212;50.894;16.714;2023-06-26T06:07:05;37.60;99.10
18175;DHT22;9212;50.894;16.714;2023-06-26T06:11:59;38.50;97.10
18175;DHT22;9212;50.894;16.714;2023-06-26T06:14:27;37.60;96.40
18175;DHT22;9212;50.894;16.714;2023-06-26T06:19:23;38.20;95.90
18175;DHT22;9212;50.894;16.714;2023-06-26T06:21:50;37.20;94.40
18175;DHT22;9212;50.894;16.714;2023-06-26T06:36:34;39.50;97.60
18175;DHT22;9212;50.894;16.714;2023-06-26T06:46:23;37.70;93.20
18175;DHT22;9212;50.894;16.714;2023-06-26T06:48:52;37.10;93.20
18175;DHT22;9212;50.894;16.714;2023-06-26T06:51:19;37.50;93.90
18175;DHT22;9212;50.894;16.714;2023-06-26T06:53:47;37.10;58.50
18175;DHT22;9212;50.894;16.714;2023-06-26T06:58:42;38.40;92.80
18175;DHT22;9212;50.894;16.714;2023-06-26T07:01:11;37.30;91.80
18175;DHT22;9212;50.894;16.714;2023-06-26T07:06:06;37.90;92.60
18175;DHT22;9212;50.894;16.714;2023-06-26T07:08:33;37.30;57.80
18175;DHT22;9212;50.894;16.714;2023-06-26T07:13:29;38.40;57.70
18175;DHT22;9212;50.894;16.714;2023-06-26T07:15:56;38.70;91.50
18175;DHT22;9212;50.894;16.714;2023-06-26T07:20:51;35.10;90.10
18175;DHT22;9212;50.894;16.714;2023-06-26T07:33:08;33.70;94.00
18175;DHT22;9212;50.894;16.714;2023-06-26T07:35:35;33.20;94.20
18175;DHT22;9212;50.894;16.714;2023-06-26T07:40:29;33.60;92.40
18175;DHT22;9212;50.894;16.714;2023-06-26T07:42:56;34.00;92.00
18175;DHT22;9212;50.894;16.714;2023-06-26T07:45:25;32.50;93.30
18175;DHT22;9212;50.894;16.714;2023-06-26T07:47:52;33.00;95.30
18175;DHT22;9212;50.894;16.714;2023-06-26T07:50:20;32.50;94.10
18175;DHT22;9212;50.894;16.714;2023-06-26T07:52:48;32.50;94.10
18175;DHT22;9212;50.894;16.714;2023-06-26T07:55:15;31.60;94.40
18175;DHT22;9212;50.894;16.714;2023-06-26T08:00:11;31.20;58.70
18175;DHT22;9212;50.894;16.714;2023-06-26T08:02:40;31.40;59.10
18175;DHT22;9212;50.894;16.714;2023-06-26T08:05:07;31.10;59.10
18175;DHT22;9212;50.894;16.714;2023-06-26T08:07:34;31.10;92.00
18175;DHT22;9212;50.894;16.714;2023-06-26T08:10:01;31.50;92.90
18175;DHT22;9212;50.894;16.714;2023-06-26T08:14:55;30.90;56.80
18175;DHT22;9212;50.894;16.714;2023-06-26T08:17:22;31.50;94.40
18175;DHT22;9212;50.894;16.714;2023-06-26T08:19:51;31.30;60.20
18175;DHT22;9212;50.894;16.714;2023-06-26T08:22:17;31.80;95.00
18175;DHT22;9212;50.894;16.714;2023-06-26T08:24:44;31.80;61.70
18175;DHT22;9212;50.894;16.714;2023-06-26T08:27:11;31.30;57.70
18175;DHT22;9212;50.894;16.714;2023-06-26T08:32:06;32.00;60.20
18175;DHT22;9212;50.894;16.714;2023-06-26T08:34:33;30.20;94.30
18175;DHT22;9212;50.894;16.714;2023-06-26T08:37:01;30.50;61.40
18175;DHT22;9212;50.894;16.714;2023-06-26T08:39:28;30.40;94.60
18175;DHT22;9212;50.894;16.714;2023-06-26T08:46:50;31.50;94.30
18175;DHT22;9212;50.894;16.714;2023-06-26T08:49:21;31.70;95.20
18175;DHT22;9212;50.894;16.714;2023-06-26T08:51:52;31.40;61.20
18175;DHT22;9212;50.894;16.714;2023-06-26T08:54:33;31.80;94.20
18175;DHT22;9212;50.894;16.714;2023-06-26T08:57:02;31.90;58.80
18175;DHT22;9212;50.894;16.714;2023-06-26T08:59:29;31.60;92.70
18175;DHT22;9212;50.894;16.714;2023-06-26T09:01:57;32.10;57.60
18175;DHT22;9212;50.894;16.714;2023-06-26T09:04:24;31.20;93.70
18175;DHT22;9212;50.894;16.714;2023-06-26T09:06:51;32.30;92.80
18175;DHT22;9212;50.894;16.714;2023-06-26T09:09:18;32.60;93.10
18175;DHT22;9212;50.894;16.714;2023-06-26T09:11:47;32.10;92.60
18175;DHT22;9212;50.894;16.714;2023-06-26T09:16:42;31.80;93.00
18175;DHT22;9212;50.894;16.714;2023-06-26T09:19:10;31.90;93.10
18175;DHT22;9212;50.894;16.714;2023-06-26T09:21:38;31.20;91.90
18175;DHT22;9212;50.894;16.714;2023-06-26T09:24:06;31.30;57.10
18175;DHT22;9212;50.894;16.714;2023-06-26T09:26:35;32.00;57.50
18175;DHT22;9212;50.894;16.714;2023-06-26T09:29:04;32.20;92.80
18175;DHT22;9212;50.894;16.714;2023-06-26T09:31:32;32.40;92.50
18175;DHT22;9212;50.894;16.714;2023-06-26T09:36:29;32.00;56.80
18175;DHT22;9212;50.894;16.714;2023-06-26T09:39:00;32.20;93.40
18175;DHT22;9212;50.894;16.714;2023-06-26T09:41:28;31.80;93.20
18175;DHT22;9212;50.894;16.714;2023-06-26T09:43:58;32.20;93.50
18175;DHT22;9212;50.894;16.714;2023-06-26T09:46:30;32.40;92.10
18175;DHT22;9212;50.894;16.714;2023-06-26T09:49:02;32.00;93.80
18175;DHT22;9212;50.894;16.714;2023-06-26T09:51:31;31.40;95.00
18175;DHT22;9212;50.894;16.714;2023-06-26T09:53:58;32.00;93.20
18175;DHT22;9212;50.894;16.714;2023-06-26T09:58:54;31.50;94.80
18175;DHT22;9212;50.894;16.714;2023-06-26T10:01:21;31.60;93.60
18175;DHT22;9212;50.894;16.714;2023-06-26T10:03:50;32.20;58.80
18175;DHT22;9212;50.894;16.714;2023-06-26T10:06:20;32.80;94.50
18175;DHT22;9212;50.894;16.714;2023-06-26T10:08:49;33.20;94.00
18175;DHT22;9212;50.894;16.714;2023-06-26T10:11:20;32.90;60.40
18175;DHT22;9212;50.894;16.714;2023-06-26T10:13:50;31.70;94.30
18175;DHT22;9212;50.894;16.714;2023-06-26T10:16:23;33.30;94.10
18175;DHT22;9212;50.894;16.714;2023-06-26T10:18:53;32.90;93.80
18175;DHT22;9212;50.894;16.714;2023-06-26T10:21:22;33.40;93.90
18175;DHT22;9212;50.894;16.714;2023-06-26T10:23:51;34.10;92.80
18175;DHT22;9212;50.894;16.714;2023-06-26T10:26:20;32.50;92.20
18175;DHT22;9212;50.894;16.714;2023-06-26T10:28:49;32.80;92.40
18175;DHT22;9212;50.894;16.714;2023-06-26T10:31:20;33.00;92.50
18175;DHT22;9212;50.894;16.714;2023-06-26T10:36:17;32.40;93.20
18175;DHT22;9212;50.894;16.714;2023-06-26T10:38:52;32.40;93.90
18175;DHT22;9212;50.894;16.714;2023-06-26T10:41:20;33.50;60.20
18175;DHT22;9212;50.894;16.714;2023-06-26T10:43:52;34.00;94.30
18175;DHT22;9212;50.894;16.714;2023-06-26T10:46:33;33.70;95.30
18175;DHT22;9212;50.894;16.714;2023-06-26T10:49:00;34.00;94.90
18175;DHT22;9212;50.894;16.714;2023-06-26T10:51:30;34.20;93.70
18175;DHT22;9212;50.894;16.714;2023-06-26T10:53:58;32.20;97.50
18175;DHT22;9212;50.894;16.714;2023-06-26T10:56:44;30.90;98.00
18175;DHT22;9212;50.894;16.714;2023-06-26T10:59:14;31.60;96.90
18175;DHT22;9212;50.894;16.714;2023-06-26T11:01:43;31.10;95.90
18175;DHT22;9212;50.894;16.714;2023-06-26T11:04:10;32.00;62.70
18175;DHT22;9212;50.894;16.714;2023-06-26T11:06:39;32.80;60.80
18175;DHT22;9212;50.894;16.714;2023-06-26T11:09:11;33.80;61.30
18175;DHT22;9212;50.894;16.714;2023-06-26T11:12:02;33.30;94.20
18175;DHT22;9212;50.894;16.714;2023-06-26T11:14:31;33.40;94.70
18175;DHT22;9212;50.894;16.714;2023-06-26T11:17:01;32.90;94.10
18175;DHT22;9212;50.894;16.714;2023-06-26T11:19:28;33.40;95.70
18175;DHT22;9212;50.894;16.714;2023-06-26T11:22:02;33.00;59.40
18175;DHT22;9212;50.894;16.714;2023-06-26T11:24:30;34.80;94.40
18175;DHT22;9212;50.894;16.714;2023-06-26T11:27:01;34.00;94.40
18175;DHT22;9212;50.894;16.714;2023-06-26T11:29:29;33.80;95.20
18175;DHT22;9212;50.894;16.714;2023-06-26T11:32:04;32.80;97.20
18175;DHT22;9212;50.894;16.714;2023-06-26T11:34:34;33.60;86.00
18175;DHT22;9212;50.894;16.714;2023-06-26T11:37:05;33.70;56.60
18175;DHT22;9212;50.894;16.714;2023-06-26T11:44:30;34.20;95.30
18175;DHT22;9212;50.894;16.714;2023-06-26T11:49:28;32.50;85.00
18175;DHT22;9212;50.894;16.714;2023-06-26T11:51:55;32.50;95.60
18175;DHT22;9212;50.894;16.714;2023-06-26T11:56:58;34.10;58.60
18175;DHT22;9212;50.894;16.714;2023-06-26T11:59:34;34.10;60.50
18175;DHT22;9212;50.894;16.714;2023-06-26T12:02:05;33.50;94.40
18175;DHT22;9212;50.894;16.714;2023-06-26T12:04:33;33.70;93.90
18175;DHT22;9212;50.894;16.714;2023-06-26T12:07:01;35.10;57.00
18175;DHT22;9212;50.894;16.714;2023-06-26T12:09:31;35.00;95.40
18175;DHT22;9212;50.894;16.714;2023-06-26T12:12:00;34.90;94.20
18175;DHT22;9212;50.894;16.714;2023-06-26T12:14:28;34.70;94.60
18175;DHT22;9212;50.894;16.714;2023-06-26T12:16:55;36.10;95.20
18175;DHT22;9212;50.894;16.714;2023-06-26T12:19:25;35.40;56.60
18175;DHT22;9212;50.894;16.714;2023-06-26T12:21:52;34.80;94.90
18175;DHT22;9212;50.894;16.714;2023-06-26T12:24:22;35.60;93.20
18175;DHT22;9212;50.894;16.714;2023-06-26T12:26:52;35.30;89.00
18175;DHT22;9212;50.894;16.714;2023-06-26T12:29:21;35.20;93.10
18175;DHT22;9212;50.894;16.714;2023-06-26T12:31:52;35.40;93.90
18175;DHT22;9212;50.894;16.714;2023-06-26T12:34:27;34.60;94.30
18175;DHT22;9212;50.894;16.714;2023-06-26T12:36:59;33.00;98.10
18175;DHT22;9212;50.894;16.714;2023-06-26T12:39:26;34.10;78.50
18175;DHT22;9212;50.894;16.714;2023-06-26T12:41:57;35.10;94.80
18175;DHT22;9212;50.894;16.714;2023-06-26T12:44:26;35.40;94.10
18175;DHT22;9212;50.894;16.714;2023-06-26T12:46:55;35.70;55.70
18175;DHT22;9212;50.894;16.714;2023-06-26T12:49:31;34.70;94.00
18175;DHT22;9212;50.894;16.714;2023-06-26T12:54:26;34.60;95.20
18175;DHT22;9212;50.894;16.714;2023-06-26T12:56:55;34.60;57.80
18175;DHT22;9212;50.894;16.714;2023-06-26T12:59:22;34.70;93.20
18175;DHT22;9212;50.894;16.714;2023-06-26T13:01:49;34.70;94.30
18175;DHT22;9212;50.894;16.714;2023-06-26T13:06:43;35.30;95.20
18175;DHT22;9212;50.894;16.714;2023-06-26T13:11:38;34.80;55.00
18175;DHT22;9212;50.894;16.714;2023-06-26T13:14:07;34.40;54.80
18175;DHT22;9212;50.894;16.714;2023-06-26T13:16:34;34.90;95.20
18175;DHT22;9212;50.894;16.714;2023-06-26T13:21:28;35.70;79.50
18175;DHT22;9212;50.894;16.714;2023-06-26T13:23:56;35.10;74.50
18175;DHT22;9212;50.894;16.714;2023-06-26T13:26:25;35.00;95.60
18175;DHT22;9212;50.894;16.714;2023-06-26T13:28:54;34.20;95.90
18175;DHT22;9212;50.894;16.714;2023-06-26T13:31:23;34.90;96.00
18175;DHT22;9212;50.894;16.714;2023-06-26T13:33:50;34.20;96.20
18175;DHT22;9212;50.894;16.714;2023-06-26T13:36:18;33.80;95.70
18175;DHT22;9212;50.894;16.714;2023-06-26T13:38:45;33.90;96.70
18175;DHT22;9212;50.894;16.714;2023-06-26T13:41:12;34.20;96.40
18175;DHT22;9212;50.894;16.714;2023-06-26T13:43:39;33.70;96.00
18175;DHT22;9212;50.894;16.714;2023-06-26T13:46:06;33.70;96.50
18175;DHT22;9212;50.894;16.714;2023-06-26T13:48:35;32.90;77.00
18175;DHT22;9212;50.894;16.714;2023-06-26T13:51:02;32.90;97.40
18175;DHT22;9212;50.894;16.714;2023-06-26T14:50:33;33.30;99.30
18175;DHT22;9212;50.894;16.714;2023-06-26T14:57:56;33.30;64.00
18175;DHT22;9212;50.894;16.714;2023-06-26T15:02:52;33.30;99.20
18175;DHT22;9212;50.894;16.714;2023-06-26T15:05:20;33.30;97.40
18175;DHT22;9212;50.894;16.714;2023-06-26T15:07:47;32.40;98.10
18175;DHT22;9212;50.894;16.714;2023-06-26T15:15:11;33.10;60.90
18175;DHT22;9212;50.894;16.714;2023-06-26T15:29:58;32.60;98.10
18175;DHT22;9212;50.894;16.714;2023-06-26T15:32:26;32.20;98.60
18175;DHT22;9212;50.894;16.714;2023-06-26T15:39:48;33.20;88.70
18175;DHT22;9212;50.894;16.714;2023-06-26T15:47:09;32.40;96.80
18175;DHT22;9212;50.894;16.714;2023-06-26T15:49:38;32.10;97.00
18175;DHT22;9212;50.894;16.714;2023-06-26T16:21:36;31.60;62.90
18175;DHT22;9212;50.894;16.714;2023-06-26T16:24:05;31.70;98.90
18175;DHT22;9212;50.894;16.714;2023-06-26T16:26:33;31.40;98.30
18175;DHT22;9212;50.894;16.714;2023-06-26T16:31:27;31.30;99.90
18175;DHT22;9212;50.894;16.714;2023-06-26T16:33:54;30.80;99.10
18175;DHT22;9212;50.894;16.714;2023-06-26T16:36:21;31.70;99.10
18175;DHT22;9212;50.894;16.714;2023-06-26T16:38:48;31.50;98.40
18175;DHT22;9212;50.894;16.714;2023-06-26T16:41:17;31.30;74.30
18175;DHT22;9212;50.894;16.714;2023-06-26T16:58:29;29.90;99.90
18175;DHT22;9212;50.894;16.714;2023-06-26T17:00:56;29.50;99.90
18175;DHT22;9212;50.894;16.714;2023-06-26T17:03:23;29.40;99.90
18175;DHT22;9212;50.894;16.714;2023-06-26T17:05:50;28.80;99.90
18175;DHT22;9212;50.894;16.714;2023-06-26T17:13:11;29.20;99.90
18175;DHT22;9212;50.894;16.714;2023-06-26T17:15:40;28.90;85.00
18175;DHT22;9212;50.894;16.714;2023-06-26T17:18:08;28.80;86.90
18175;DHT22;9212;50.894;16.714;2023-06-26T17:20:36;28.50;87.20
18175;DHT22;9212;50.894;16.714;2023-06-26T17:23:03;28.40;90.00
18175;DHT22;9212;50.894;16.714;2023-06-26T17:25:30;28.30;90.30
18175;DHT22;9212;50.894;16.714;2023-06-26T17:27:59;28.30;90.70
18175;DHT22;9212;50.894;16.714;2023-06-26T17:32:54;28.20;91.50
18175;DHT22;9212;50.894;16.714;2023-06-26T17:35:22;28.00;91.40
18175;DHT22;9212;50.894;16.714;2023-06-26T17:37:49;28.00;92.30
18175;DHT22;9212;50.894;16.714;2023-06-26T17:40:16;28.00;92.10
18175;DHT22;9212;50.894;16.714;2023-06-26T17:42:43;27.80;92.60
18175;DHT22;9212;50.894;16.714;2023-06-26T17:45:10;27.70;99.90
18175;DHT22;9212;50.894;16.714;2023-06-26T17:47:40;27.10;99.90
18175;DHT22;9212;50.894;16.714;2023-06-26T17:50:10;27.20;95.40
18175;DHT22;9212;50.894;16.714;2023-06-26T17:52:38;27.20;95.90
18175;DHT22;9212;50.894;16.714;2023-06-26T17:55:07;27.00;95.70
18175;DHT22;9212;50.894;16.714;2023-06-26T17:57:34;27.00;97.60
18175;DHT22;9212;50.894;16.714;2023-06-26T18:00:01;26.90;97.10
18175;DHT22;9212;50.894;16.714;2023-06-26T18:02:30;26.90;97.70
18175;DHT22;9212;50.894;16.714;2023-06-26T18:04:57;26.90;98.20
18175;DHT22;9212;50.894;16.714;2023-06-26T18:07:25;26.80;99.10
18175;DHT22;9212;50.894;16.714;2023-06-26T18:09:52;26.50;99.90
18175;DHT22;9212;50.894;16.714;2023-06-26T18:12:19;26.50;99.90
18175;DHT22;9212;50.894;16.714;2023-06-26T18:14:46;26.20;99.90
18175;DHT22;9212;50.894;16.714;2023-06-26T18:17:13;26.20;99.90
18175;DHT22;9212;50.894;16.714;2023-06-26T18:19:41;26.10;99.90
18175;DHT22;9212;50.894;16.714;2023-06-26T18:22:08;25.90;99.90
18175;DHT22;9212;50.894;16.714;2023-06-26T18:24:36;25.70;99.90
18175;DHT22;9212;50.894;16.714;2023-06-26T18:27:04;25.70;99.90
18175;DHT22;9212;50.894;16.714;2023-06-26T18:29:31;25.20;99.90
18175;DHT22;9212;50.894;16.714;2023-06-26T18:31:58;25.50;99.90
18175;DHT22;9212;50.894;16.714;2023-06-26T18:34:25;25.30;99.90
18175;DHT22;9212;50.894;16.714;2023-06-26T18:36:52;25.30;99.90
18175;DHT22;9212;50.894;16.714;2023-06-26T18:39:21;25.20;99.90
18175;DHT22;9212;50.894;16.714;2023-06-26T18:44:18;25.00;99.90
18175;DHT22;9212;50.894;16.714;2023-06-26T18:46:45;24.90;99.90
18175;DHT22;9212;50.894;16.714;2023-06-26T18:49:12;24.90;99.90
18175;DHT22;9212;50.894;16.714;2023-06-26T18:51:38;24.80;99.90
18175;DHT22;9212;50.894;16.714;2023-06-26T18:54:05;24.60;99.90
18175;DHT22;9212;50.894;16.714;2023-06-26T18:56:33;24.80;99.90
18175;DHT22;9212;50.894;16.714;2023-06-26T18:59:02;24.80;99.90
18175;DHT22;9212;50.894;16.714;2023-06-26T19:01:29;24.70;99.90
18175;DHT22;9212;50.894;16.714;2023-06-26T19:03:56;24.70;99.90
18175;DHT22;9212;50.894;16.714;2023-06-26T19:06:24;24.60;99.90
18175;DHT22;9212;50.894;16.714;2023-06-26T19:08:51;24.60;99.90
18175;DHT22;9212;50.894;16.714;2023-06-26T19:11:18;24.50;99.90
18175;DHT22;9212;50.894;16.714;2023-06-26T19:13:45;24.50;99.90
18175;DHT22;9212;50.894;16.714;2023-06-26T19:16:14;24.50;99.90
18175;DHT22;9212;50.894;16.714;2023-06-26T19:18:41;24.50;99.90
18175;DHT22;9212;50.894;16.714;2023-06-26T19:21:08;24.40;99.90
18175;DHT22;9212;50.894;16.714;2023-06-26T19:23:36;24.40;99.90
18175;DHT22;9212;50.894;16.714;2023-06-26T19:26:02;24.40;99.90
18175;DHT22;9212;50.894;16.714;2023-06-26T19:28:29;24.40;99.90
18175;DHT22;9212;50.894;16.714;2023-06-26T19:30:56;24.30;99.90
18175;DHT22;9212;50.894;16.714;2023-06-26T19:33:25;24.30;99.90
18175;DHT22;9212;50.894;16.714;2023-06-26T19:35:52;24.30;99.90
18175;DHT22;9212;50.894;16.714;2023-06-26T19:38:19;24.30;99.90
18175;DHT22;9212;50.894;16.714;2023-06-26T19:40:46;24.30;99.90
18175;DHT22;9212;50.894;16.714;2023-06-26T19:43:13;24.10;99.90
18175;DHT22;9212;50.894;16.714;2023-06-26T19:45:40;23.30;99.90
18175;DHT22;9212;50.894;16.714;2023-06-26T19:48:07;22.30;99.90
18175;DHT22;9212;50.894;16.714;2023-06-26T19:50:36;21.50;99.90
18175;DHT22;9212;50.894;16.714;2023-06-26T19:53:03;20.30;99.90
18175;DHT22;9212;50.894;16.714;2023-06-26T19:55:30;19.60;99.90
18175;DHT22;9212;50.894;16.714;2023-06-26T19:57:57;19.60;99.90
18175;DHT22;9212;50.894;16.714;2023-06-26T20:00:25;19.50;99.90
18175;DHT22;9212;50.894;16.714;2023-06-26T20:02:52;19.50;99.90
18175;DHT22;9212;50.894;16.714;2023-06-26T20:05:19;19.50;99.90
18175;DHT22;9212;50.894;16.714;2023-06-26T20:07:47;19.50;99.90
18175;DHT22;9212;50.894;16.714;2023-06-26T20:10:14;19.70;99.90
18175;DHT22;9212;50.894;16.714;2023-06-26T20:12:41;19.80;99.90
18175;DHT22;9212;50.894;16.714;2023-06-26T20:15:09;20.00;99.90
18175;DHT22;9212;50.894;16.714;2023-06-26T22:20:47;18.70;99.90
18175;DHT22;9212;50.894;16.714;2023-06-26T22:23:14;18.60;99.90
